createdAt,value
2016-04-11T00:00:27.959Z,0
2016-04-11T00:01:27.961Z,0
2016-04-11T00:02:27.964Z,0
2016-04-11T00:03:27.951Z,0
2016-04-11T00:04:27.969Z,0
2016-04-11T00:05:27.956Z,0
2016-04-11T00:06:27.942Z,0
2016-04-11T00:07:27.962Z,0
2016-04-11T00:08:27.964Z,0
2016-04-11T00:09:27.967Z,0
2016-04-11T00:10:27.986Z,0
2016-04-11T00:11:27.973Z,0
2016-04-11T00:12:28.053Z,0
2016-04-11T00:13:27.961Z,0
2016-04-11T00:14:27.949Z,0
2016-04-11T00:15:27.953Z,0
2016-04-11T00:16:27.956Z,0
2016-04-11T00:17:27.973Z,0
2016-04-11T00:18:27.961Z,0
2016-04-11T00:19:27.948Z,0
2016-04-11T00:20:27.982Z,0
2016-04-11T00:21:27.953Z,0
2016-04-11T00:22:27.956Z,0
2016-04-11T00:23:27.959Z,0
2016-04-11T00:24:27.977Z,0
2016-04-11T00:25:27.964Z,0
2016-04-11T00:26:27.950Z,0
2016-04-11T00:27:27.969Z,0
2016-04-11T00:28:27.956Z,0
2016-04-11T00:29:27.959Z,0
2016-04-11T00:30:27.961Z,0
2016-04-11T00:31:27.964Z,0
2016-04-11T00:32:27.967Z,0
2016-04-11T00:33:30.158Z,0
2016-04-11T00:34:27.645Z,0
2016-04-11T00:35:28.357Z,0
2016-04-11T00:36:32.390Z,0
2016-04-11T00:37:27.971Z,0
2016-04-11T00:38:27.958Z,0
2016-04-11T00:39:27.961Z,0
2016-04-11T00:40:27.947Z,0
2016-04-11T00:41:27.950Z,0
2016-04-11T00:42:28.140Z,0
2016-04-11T00:43:27.955Z,0
2016-04-11T00:44:27.787Z,0
2016-04-11T00:45:27.977Z,0
2016-04-11T00:46:27.948Z,0
2016-04-11T00:47:27.966Z,0
2016-04-11T00:48:27.954Z,0
2016-04-11T00:49:27.941Z,0
2016-04-11T00:50:27.959Z,0
2016-04-11T00:51:27.962Z,0
2016-04-11T00:52:27.949Z,0
2016-04-11T00:53:27.952Z,0
2016-04-11T00:54:27.954Z,0
2016-04-11T00:55:27.957Z,0
2016-04-11T00:56:27.959Z,0
2016-04-11T00:57:27.962Z,0
2016-04-11T00:58:27.950Z,0
2016-04-11T00:59:27.967Z,0
2016-04-11T01:00:27.970Z,0
2016-04-11T01:01:27.973Z,0
2016-04-11T01:02:27.944Z,0
2016-04-11T01:03:27.947Z,0
2016-04-11T01:04:28.199Z,0
2016-04-11T01:05:27.952Z,0
2016-04-11T01:06:27.955Z,0
2016-04-11T01:07:27.958Z,0
2016-04-11T01:08:27.961Z,0
2016-04-11T01:09:27.984Z,0
2016-04-11T01:10:27.955Z,0
2016-04-11T01:11:27.958Z,0
2016-04-11T01:12:27.960Z,0
2016-04-11T01:13:27.963Z,0
2016-04-11T01:14:27.951Z,0
2016-04-11T01:15:27.953Z,0
2016-04-11T01:16:27.972Z,0
2016-04-11T01:17:27.943Z,0
2016-04-11T01:18:27.962Z,0
2016-04-11T01:19:27.964Z,0
2016-04-11T01:20:27.935Z,0
2016-04-11T01:21:27.954Z,0
2016-04-11T01:22:27.956Z,0
2016-04-11T01:23:27.959Z,0
2016-04-11T01:24:27.961Z,0
2016-04-11T01:25:27.948Z,0
2016-04-11T01:26:27.951Z,0
2016-04-11T01:27:27.954Z,0
2016-04-11T01:28:27.956Z,0
2016-04-11T01:29:27.944Z,0
2016-04-11T01:30:27.962Z,0
2016-04-11T01:31:27.949Z,0
2016-04-11T01:32:27.952Z,0
2016-04-11T01:33:27.955Z,0
2016-04-11T01:34:27.958Z,0
2016-04-11T01:35:27.960Z,0
2016-04-11T01:36:27.963Z,0
2016-04-11T01:37:27.949Z,0
2016-04-11T01:38:27.936Z,0
2016-04-11T01:39:27.955Z,0
2016-04-11T01:40:27.957Z,0
2016-04-11T01:41:27.945Z,0
2016-04-11T01:42:27.947Z,0
2016-04-11T01:43:27.950Z,0
2016-04-11T01:44:27.952Z,0
2016-04-11T01:45:27.940Z,0
2016-04-11T01:46:27.943Z,0
2016-04-11T01:47:27.946Z,0
2016-04-11T01:48:27.948Z,0
2016-04-11T01:49:27.795Z,0
2016-04-11T01:50:27.953Z,0
2016-04-11T01:51:27.956Z,0
2016-04-11T01:52:27.959Z,0
2016-04-11T01:53:27.946Z,0
2016-04-11T01:54:27.949Z,0
2016-04-11T01:55:27.951Z,0
2016-04-11T01:56:27.939Z,0
2016-04-11T01:57:27.972Z,0
2016-04-11T01:58:27.944Z,0
2016-04-11T01:59:27.947Z,0
2016-04-11T02:00:27.949Z,0
2016-04-11T02:01:27.952Z,0
2016-04-11T02:02:27.938Z,0
2016-04-11T02:03:27.957Z,0
2016-04-11T02:04:27.944Z,0
2016-04-11T02:05:27.947Z,0
2016-04-11T02:06:27.949Z,0
2016-04-11T02:07:27.953Z,0
2016-04-11T02:08:27.955Z,0
2016-04-11T02:09:27.974Z,0
2016-04-11T02:10:27.960Z,0
2016-04-11T02:11:27.932Z,0
2016-04-11T02:12:28.013Z,0
2016-04-11T02:13:27.937Z,0
2016-04-11T02:14:27.940Z,0
2016-04-11T02:15:27.942Z,0
2016-04-11T02:16:27.946Z,0
2016-04-11T02:17:27.948Z,0
2016-04-11T02:18:27.951Z,0
2016-04-11T02:19:27.937Z,0
2016-04-11T02:20:27.941Z,0
2016-04-11T02:21:27.943Z,0
2016-04-11T02:22:27.945Z,0
2016-04-11T02:23:27.948Z,0
2016-04-11T02:24:27.951Z,0
2016-04-11T02:25:27.938Z,0
2016-04-11T02:26:27.940Z,0
2016-04-11T02:27:27.943Z,0
2016-04-11T02:28:27.961Z,0
2016-04-11T02:29:27.948Z,0
2016-04-11T02:30:27.967Z,0
2016-04-11T02:31:27.954Z,0
2016-04-11T02:32:27.925Z,0
2016-04-11T02:33:27.945Z,0
2016-04-11T02:34:27.947Z,0
2016-04-11T02:35:27.934Z,0
2016-04-11T02:36:27.952Z,0
2016-04-11T02:37:27.955Z,0
2016-04-11T02:38:27.958Z,0
2016-04-11T02:39:27.961Z,0
2016-04-11T02:40:27.963Z,0
2016-04-11T02:41:27.950Z,0
2016-04-11T02:42:27.905Z,0
2016-04-11T02:43:27.940Z,0
2016-04-11T02:44:27.942Z,0
2016-04-11T02:45:27.945Z,0
2016-04-11T02:46:27.932Z,0
2016-04-11T02:47:27.951Z,0
2016-04-11T02:48:27.938Z,0
2016-04-11T02:49:27.924Z,0
2016-04-11T02:50:27.942Z,0
2016-04-11T02:51:27.929Z,0
2016-04-11T02:52:27.932Z,0
2016-04-11T02:53:27.935Z,0
2016-04-11T02:54:27.922Z,0
2016-04-11T02:55:27.925Z,0
2016-04-11T02:56:27.786Z,0
2016-04-11T02:57:27.962Z,0
2016-04-11T02:58:27.792Z,0
2016-04-11T02:59:27.936Z,0
2016-04-11T03:00:27.767Z,0
2016-04-11T03:01:27.785Z,0
2016-04-11T03:02:27.928Z,0
2016-04-11T03:03:27.930Z,0
2016-04-11T03:04:27.933Z,0
2016-04-11T03:05:27.920Z,0
2016-04-11T03:06:27.939Z,0
2016-04-11T03:07:27.925Z,0
2016-04-11T03:08:27.928Z,0
2016-04-11T03:09:27.774Z,0
2016-04-11T03:10:27.933Z,0
2016-04-11T03:11:27.796Z,0
2016-04-11T03:12:27.955Z,0
2016-04-11T03:13:27.926Z,0
2016-04-11T03:14:27.945Z,0
2016-04-11T03:15:27.932Z,0
2016-04-11T03:16:27.935Z,0
2016-04-11T03:17:27.921Z,0
2016-04-11T03:18:27.924Z,0
2016-04-11T03:19:27.927Z,0
2016-04-11T03:20:27.914Z,0
2016-04-11T03:21:27.932Z,0
2016-04-11T03:22:27.920Z,0
2016-04-11T03:23:27.937Z,0
2016-04-11T03:24:27.925Z,0
2016-04-11T03:25:27.912Z,0
2016-04-11T03:26:27.930Z,0
2016-04-11T03:27:27.964Z,0
2016-04-11T03:28:27.920Z,0
2016-04-11T03:29:27.923Z,0
2016-04-11T03:30:27.909Z,0
2016-04-11T03:31:27.912Z,0
2016-04-11T03:32:27.914Z,0
2016-04-11T03:33:27.902Z,0
2016-04-11T03:34:27.920Z,0
2016-04-11T03:35:27.923Z,0
2016-04-11T03:36:27.941Z,0
2016-04-11T03:37:27.928Z,0
2016-04-11T03:38:27.915Z,0
2016-04-11T03:39:27.919Z,0
2016-04-11T03:40:27.905Z,0
2016-04-11T03:41:27.924Z,0
2016-04-11T03:42:27.724Z,0
2016-04-11T03:43:27.758Z,0
2016-04-11T03:44:27.916Z,0
2016-04-11T03:45:27.919Z,0
2016-04-11T03:46:27.921Z,0
2016-04-11T03:47:27.924Z,0
2016-04-11T03:48:27.911Z,0
2016-04-11T03:49:27.914Z,0
2016-04-11T03:50:27.916Z,0
2016-04-11T03:51:27.904Z,0
2016-04-11T03:52:27.906Z,0
2016-04-11T03:53:27.909Z,0
2016-04-11T03:54:27.912Z,0
2016-04-11T03:55:27.914Z,0
2016-04-11T03:56:27.901Z,0
2016-04-11T03:57:27.810Z,0
2016-04-11T03:58:27.923Z,0
2016-04-11T03:59:27.925Z,0
2016-04-11T04:00:27.897Z,0
2016-04-11T04:01:27.899Z,0
2016-04-11T04:02:27.903Z,0
2016-04-11T04:03:27.905Z,0
2016-04-11T04:04:27.908Z,0
2016-04-11T04:05:27.894Z,0
2016-04-11T04:06:27.897Z,0
2016-04-11T04:07:27.899Z,0
2016-04-11T04:08:27.903Z,0
2016-04-11T04:09:27.905Z,0
2016-04-11T04:10:27.908Z,0
2016-04-11T04:11:27.910Z,0
2016-04-11T04:12:28.023Z,0
2016-04-11T04:13:27.900Z,0
2016-04-11T04:14:27.919Z,0
2016-04-11T04:15:27.890Z,0
2016-04-11T04:16:27.893Z,0
2016-04-11T04:17:27.911Z,0
2016-04-11T04:18:27.899Z,0
2016-04-11T04:19:27.901Z,0
2016-04-11T04:20:27.904Z,0
2016-04-11T04:21:27.906Z,0
2016-04-11T04:22:27.893Z,0
2016-04-11T04:23:27.896Z,0
2016-04-11T04:24:27.932Z,0
2016-04-11T04:25:27.978Z,0
2016-04-11T04:26:28.025Z,0
2016-04-11T04:27:28.259Z,0
2016-04-11T04:28:28.118Z,0
2016-04-11T04:29:28.127Z,0
2016-04-11T04:30:28.145Z,0
2016-04-11T04:31:28.148Z,0
2016-04-11T04:32:28.183Z,0
2016-04-11T04:33:28.201Z,0
2016-04-11T04:34:28.211Z,0
2016-04-11T04:35:28.235Z,0
2016-04-11T04:36:28.228Z,0
2016-04-11T04:37:28.253Z,0
2016-04-11T04:38:28.245Z,0
2016-04-11T04:39:28.220Z,5
2016-04-11T04:40:28.209Z,5
2016-04-11T04:41:28.229Z,5
2016-04-11T04:42:28.297Z,5
2016-04-11T04:43:28.238Z,5
2016-04-11T04:44:28.227Z,5
2016-04-11T04:45:28.230Z,5
2016-04-11T04:46:28.233Z,5
2016-04-11T04:47:28.221Z,10
2016-04-11T04:48:28.225Z,10
2016-04-11T04:49:28.228Z,10
2016-04-11T04:50:28.215Z,10
2016-04-11T04:51:28.234Z,10
2016-04-11T04:52:28.221Z,15
2016-04-11T04:53:28.240Z,20
2016-04-11T04:54:28.227Z,20
2016-04-11T04:55:28.229Z,20
2016-04-11T04:56:28.217Z,25
2016-04-11T04:57:28.267Z,25
2016-04-11T04:58:28.223Z,30
2016-04-11T04:59:28.225Z,30
2016-04-11T05:00:28.228Z,35
2016-04-11T05:01:28.245Z,40
2016-04-11T05:02:28.218Z,40
2016-04-11T05:03:28.251Z,40
2016-04-11T05:04:28.223Z,45
2016-04-11T05:05:28.226Z,50
2016-04-11T05:06:28.212Z,55
2016-04-11T05:07:28.340Z,60
2016-04-11T05:08:28.233Z,60
2016-04-11T05:09:28.220Z,65
2016-04-11T05:10:28.223Z,65
2016-04-11T05:11:28.211Z,75
2016-04-11T05:12:28.322Z,70
2016-04-11T05:13:28.216Z,70
2016-04-11T05:14:28.218Z,80
2016-04-11T05:15:28.221Z,90
2016-04-11T05:16:28.224Z,90
2016-04-11T05:17:28.227Z,95
2016-04-11T05:18:28.229Z,100
2016-04-11T05:19:28.232Z,110
2016-04-11T05:20:28.235Z,115
2016-04-11T05:21:28.221Z,120
2016-04-11T05:22:28.224Z,130
2016-04-11T05:23:28.227Z,130
2016-04-11T05:24:28.229Z,135
2016-04-11T05:25:28.232Z,140
2016-04-11T05:26:28.235Z,145
2016-04-11T05:27:28.223Z,155
2016-04-11T05:28:28.226Z,160
2016-04-11T05:29:28.228Z,160
2016-04-11T05:30:28.231Z,165
2016-04-11T05:31:28.233Z,170
2016-04-11T05:32:28.220Z,180
2016-04-11T05:33:28.239Z,185
2016-04-11T05:34:28.225Z,185
2016-04-11T05:35:28.244Z,185
2016-04-11T05:36:28.231Z,190
2016-04-11T05:37:28.233Z,145
2016-04-11T05:38:28.236Z,210
2016-04-11T05:39:28.239Z,215
2016-04-11T05:40:28.241Z,220
2016-04-11T05:41:28.260Z,230
2016-04-11T05:42:28.248Z,230
2016-04-11T05:43:28.281Z,235
2016-04-11T05:44:28.237Z,235
2016-04-11T05:45:28.255Z,225
2016-04-11T05:46:28.242Z,230
2016-04-11T05:47:28.230Z,230
2016-04-11T05:48:28.247Z,245
2016-04-11T05:49:28.266Z,260
2016-04-11T05:50:28.252Z,275
2016-04-11T05:51:28.255Z,285
2016-04-11T05:52:28.258Z,290
2016-04-11T05:53:28.261Z,295
2016-04-11T05:54:28.263Z,305
2016-04-11T05:55:28.266Z,310
2016-04-11T05:56:28.269Z,320
2016-04-11T05:57:28.257Z,320
2016-04-11T05:58:28.274Z,325
2016-04-11T05:59:28.621Z,335
2016-04-11T06:00:28.265Z,345
2016-04-11T06:01:28.282Z,340
2016-04-11T06:02:28.270Z,335
2016-04-11T06:03:28.287Z,340
2016-04-11T06:04:28.290Z,345
2016-04-11T06:05:28.309Z,350
2016-04-11T06:06:28.296Z,355
2016-04-11T06:07:28.298Z,355
2016-04-11T06:08:28.302Z,350
2016-04-11T06:09:28.303Z,365
2016-04-11T06:10:28.291Z,375
2016-04-11T06:11:28.309Z,375
2016-04-11T06:12:28.328Z,390
2016-04-11T06:13:28.330Z,390
2016-04-11T06:14:28.317Z,400
2016-04-11T06:15:28.320Z,410
2016-04-11T06:16:28.323Z,415
2016-04-11T06:17:28.358Z,415
2016-04-11T06:18:28.344Z,425
2016-04-11T06:19:28.346Z,430
2016-04-11T06:20:28.350Z,435
2016-04-11T06:21:28.352Z,435
2016-04-11T06:22:28.354Z,435
2016-04-11T06:23:28.358Z,450
2016-04-11T06:24:28.376Z,450
2016-04-11T06:25:28.363Z,455
2016-04-11T06:26:28.366Z,470
2016-04-11T06:27:28.368Z,475
2016-04-11T06:28:28.387Z,480
2016-04-11T06:29:28.390Z,470
2016-04-11T06:30:28.392Z,480
2016-04-11T06:31:28.395Z,475
2016-04-11T06:32:28.413Z,505
2016-04-11T06:33:28.416Z,515
2016-04-11T06:34:28.418Z,510
2016-04-11T06:35:28.420Z,525
2016-04-11T06:36:28.424Z,525
2016-04-11T06:37:28.442Z,545
2016-04-11T06:38:28.444Z,530
2016-04-11T06:39:28.448Z,525
2016-04-11T06:40:28.450Z,540
2016-04-11T06:41:28.453Z,550
2016-04-11T06:42:28.456Z,520
2016-04-11T06:43:28.458Z,555
2016-04-11T06:44:28.461Z,595
2016-04-11T06:45:28.464Z,575
2016-04-11T06:46:28.481Z,550
2016-04-11T06:47:28.484Z,555
2016-04-11T06:48:28.487Z,565
2016-04-11T06:49:28.490Z,570
2016-04-11T06:50:28.492Z,585
2016-04-11T06:51:28.651Z,580
2016-04-11T06:52:28.514Z,600
2016-04-11T06:53:28.516Z,605
2016-04-11T06:54:28.518Z,590
2016-04-11T06:55:28.538Z,565
2016-04-11T06:56:28.524Z,580
2016-04-11T06:57:28.543Z,600
2016-04-11T06:58:28.546Z,610
2016-04-11T06:59:28.563Z,625
2016-04-11T07:00:28.551Z,615
2016-04-11T07:01:28.553Z,610
2016-04-11T07:02:28.571Z,615
2016-04-11T07:03:28.574Z,610
2016-04-11T07:04:28.577Z,645
2016-04-11T07:05:28.596Z,670
2016-04-11T07:06:28.614Z,665
2016-04-11T07:07:28.601Z,660
2016-04-11T07:08:28.635Z,670
2016-04-11T07:09:28.465Z,680
2016-04-11T07:10:28.625Z,670
2016-04-11T07:11:28.627Z,675
2016-04-11T07:12:28.645Z,700
2016-04-11T07:13:28.648Z,690
2016-04-11T07:14:28.650Z,685
2016-04-11T07:15:28.684Z,740
2016-04-11T07:16:28.672Z,715
2016-04-11T07:17:28.690Z,710
2016-04-11T07:18:28.709Z,700
2016-04-11T07:19:28.695Z,720
2016-04-11T07:20:28.698Z,760
2016-04-11T07:21:28.700Z,745
2016-04-11T07:22:28.719Z,700
2016-04-11T07:23:28.706Z,735
2016-04-11T07:24:28.740Z,760
2016-04-11T07:25:28.745Z,760
2016-04-11T07:26:28.732Z,755
2016-04-11T07:27:28.735Z,755
2016-04-11T07:28:28.753Z,765
2016-04-11T07:29:28.756Z,740
2016-04-11T07:30:28.773Z,755
2016-04-11T07:31:28.776Z,785
2016-04-11T07:32:28.780Z,765
2016-04-11T07:33:28.798Z,750
2016-04-11T07:34:28.800Z,725
2016-04-11T07:35:28.818Z,750
2016-04-11T07:36:28.806Z,775
2016-04-11T07:37:28.823Z,760
2016-04-11T07:38:28.842Z,770
2016-04-11T07:39:28.829Z,725
2016-04-11T07:40:28.848Z,750
2016-04-11T07:41:28.850Z,790
2016-04-11T07:42:28.853Z,825
2016-04-11T07:43:28.872Z,785
2016-04-11T07:44:28.874Z,745
2016-04-11T07:45:28.877Z,805
2016-04-11T07:46:28.895Z,795
2016-04-11T07:47:28.897Z,790
2016-04-11T07:48:28.917Z,850
2016-04-11T07:49:28.919Z,870
2016-04-11T07:50:28.922Z,840
2016-04-11T07:51:28.940Z,895
2016-04-11T07:52:28.926Z,870
2016-04-11T07:53:28.946Z,835
2016-04-11T07:54:28.963Z,875
2016-04-11T07:55:28.966Z,860
2016-04-11T07:56:28.969Z,810
2016-04-11T07:57:28.987Z,825
2016-04-11T07:58:28.990Z,845
2016-04-11T07:59:28.993Z,820
2016-04-11T08:00:29.010Z,825
2016-04-11T08:01:29.013Z,810
2016-04-11T08:02:29.016Z,800
2016-04-11T08:03:29.019Z,820
2016-04-11T08:04:29.037Z,860
2016-04-11T08:05:29.024Z,810
2016-04-11T08:06:29.026Z,780
2016-04-11T08:07:29.045Z,800
2016-04-11T08:08:28.892Z,790
2016-04-11T08:09:29.055Z,785
2016-04-11T08:10:29.075Z,780
2016-04-11T08:11:29.077Z,790
2016-04-11T08:12:29.079Z,810
2016-04-11T08:13:29.222Z,785
2016-04-11T08:14:29.100Z,780
2016-04-11T08:15:29.103Z,840
2016-04-11T08:16:29.121Z,785
2016-04-11T08:17:29.124Z,695
2016-04-11T08:18:29.132Z,715
2016-04-11T08:19:29.134Z,775
2016-04-11T08:20:29.169Z,790
2016-04-11T08:21:29.155Z,840
2016-04-11T08:22:29.157Z,830
2016-04-11T08:23:29.160Z,775
2016-04-11T08:24:29.194Z,730
2016-04-11T08:25:29.182Z,750
2016-04-11T08:26:29.184Z,675
2016-04-11T08:27:29.031Z,405
2016-04-11T08:28:29.362Z,230
2016-04-11T08:29:29.208Z,215
2016-04-11T08:30:29.226Z,215
2016-04-11T08:31:29.245Z,215
2016-04-11T08:32:29.217Z,210
2016-04-11T08:33:29.234Z,205
2016-04-11T08:34:29.253Z,205
2016-04-11T08:35:29.240Z,200
2016-04-11T08:36:29.258Z,195
2016-04-11T08:37:29.276Z,195
2016-04-11T08:38:29.264Z,190
2016-04-11T08:39:29.281Z,190
2016-04-11T08:40:29.284Z,190
2016-04-11T08:41:29.303Z,190
2016-04-11T08:42:29.305Z,185
2016-04-11T08:43:29.199Z,185
2016-04-11T08:44:29.311Z,185
2016-04-11T08:45:29.329Z,180
2016-04-11T08:46:29.316Z,180
2016-04-11T08:47:29.319Z,180
2016-04-11T08:48:29.337Z,180
2016-04-11T08:49:29.340Z,175
2016-04-11T08:50:29.343Z,175
2016-04-11T08:51:29.377Z,175
2016-04-11T08:52:29.363Z,175
2016-04-11T08:53:29.365Z,170
2016-04-11T08:54:29.385Z,170
2016-04-11T08:55:29.371Z,170
2016-04-11T08:56:29.406Z,170
2016-04-11T08:57:29.408Z,170
2016-04-11T08:58:29.426Z,170
2016-04-11T08:59:29.414Z,170
2016-04-11T09:00:29.416Z,170
2016-04-11T09:01:29.420Z,170
2016-04-11T09:02:29.422Z,170
2016-04-11T09:03:29.425Z,170
2016-04-11T09:04:29.708Z,170
2016-04-11T09:05:29.430Z,170
2016-04-11T09:06:29.448Z,160
2016-04-11T09:07:29.450Z,160
2016-04-11T09:08:29.453Z,160
2016-04-11T09:09:29.456Z,155
2016-04-11T09:10:29.490Z,155
2016-04-11T09:11:29.477Z,155
2016-04-11T09:12:29.480Z,150
2016-04-11T09:13:29.452Z,155
2016-04-11T09:14:29.485Z,150
2016-04-11T09:15:29.503Z,155
2016-04-11T09:16:29.506Z,160
2016-04-11T09:17:29.508Z,165
2016-04-11T09:18:29.511Z,170
2016-04-11T09:19:29.499Z,170
2016-04-11T09:20:29.516Z,160
2016-04-11T09:21:29.535Z,160
2016-04-11T09:22:29.507Z,155
2016-04-11T09:23:29.541Z,160
2016-04-11T09:24:29.527Z,155
2016-04-11T09:25:29.390Z,165
2016-04-11T09:26:29.549Z,170
2016-04-11T09:27:29.395Z,170
2016-04-11T09:28:30.085Z,170
2016-04-11T09:29:29.557Z,170
2016-04-11T09:30:29.560Z,165
2016-04-11T09:31:29.578Z,160
2016-04-11T09:32:29.581Z,160
2016-04-11T09:33:29.583Z,160
2016-04-11T09:34:29.586Z,155
2016-04-11T09:35:29.604Z,155
2016-04-11T09:36:29.607Z,155
2016-04-11T09:37:29.594Z,155
2016-04-11T09:38:29.612Z,150
2016-04-11T09:39:29.615Z,150
2016-04-11T09:40:29.633Z,145
2016-04-11T09:41:29.636Z,145
2016-04-11T09:42:29.622Z,145
2016-04-11T09:43:29.861Z,145
2016-04-11T09:44:29.472Z,145
2016-04-11T09:45:29.630Z,145
2016-04-11T09:46:29.633Z,145
2016-04-11T09:47:29.714Z,140
2016-04-11T09:48:29.686Z,140
2016-04-11T09:49:29.658Z,140
2016-04-11T09:50:29.676Z,140
2016-04-11T09:51:29.663Z,140
2016-04-11T09:52:29.682Z,135
2016-04-11T09:53:29.668Z,135
2016-04-11T09:54:29.687Z,135
2016-04-11T09:55:29.673Z,130
2016-04-11T09:56:29.880Z,130
2016-04-11T09:57:29.679Z,130
2016-04-11T09:58:29.681Z,130
2016-04-11T09:59:29.684Z,125
2016-04-11T10:00:29.687Z,125
2016-04-11T10:01:29.706Z,125
2016-04-11T10:02:29.692Z,125
2016-04-11T10:03:29.726Z,125
2016-04-11T10:04:29.713Z,125
2016-04-11T10:05:29.717Z,120
2016-04-11T10:06:29.719Z,120
2016-04-11T10:07:29.737Z,120
2016-04-11T10:08:29.739Z,120
2016-04-11T10:09:29.743Z,120
2016-04-11T10:10:29.745Z,120
2016-04-11T10:11:29.748Z,120
2016-04-11T10:12:29.750Z,120
2016-04-11T10:13:29.941Z,120
2016-04-11T10:14:29.755Z,115
2016-04-11T10:15:29.758Z,115
2016-04-11T10:16:29.777Z,115
2016-04-11T10:17:29.779Z,120
2016-04-11T10:18:29.766Z,115
2016-04-11T10:19:29.769Z,115
2016-04-11T10:20:29.772Z,115
2016-04-11T10:21:29.790Z,115
2016-04-11T10:22:29.793Z,115
2016-04-11T10:23:29.811Z,115
2016-04-11T10:24:29.798Z,115
2016-04-11T10:25:29.801Z,115
2016-04-11T10:26:29.804Z,115
2016-04-11T10:27:29.806Z,115
2016-04-11T10:28:30.029Z,115
2016-04-11T10:29:30.343Z,115
2016-04-11T10:30:29.815Z,115
2016-04-11T10:31:29.832Z,110
2016-04-11T10:32:29.820Z,110
2016-04-11T10:33:29.854Z,115
2016-04-11T10:34:29.670Z,115
2016-04-11T10:35:29.828Z,115
2016-04-11T10:36:30.206Z,115
2016-04-11T10:37:29.848Z,115
2016-04-11T10:38:29.851Z,115
2016-04-11T10:39:29.839Z,110
2016-04-11T10:40:29.842Z,110
2016-04-11T10:41:29.859Z,110
2016-04-11T10:42:29.862Z,110
2016-04-11T10:43:30.100Z,110
2016-04-11T10:44:29.852Z,110
2016-04-11T10:45:29.886Z,110
2016-04-11T10:46:29.873Z,110
2016-04-11T10:47:29.875Z,110
2016-04-11T10:48:30.035Z,110
2016-04-11T10:49:29.913Z,110
2016-04-11T10:50:29.883Z,110
2016-04-11T10:51:29.886Z,110
2016-04-11T10:52:29.889Z,105
2016-04-11T10:53:29.908Z,105
2016-04-11T10:54:29.894Z,105
2016-04-11T10:55:29.897Z,105
2016-04-11T10:56:29.915Z,105
2016-04-11T10:57:29.903Z,105
2016-04-11T10:58:29.921Z,105
2016-04-11T10:59:29.924Z,105
2016-04-11T11:00:29.910Z,105
2016-04-11T11:01:29.929Z,105
2016-04-11T11:02:29.931Z,105
2016-04-11T11:03:29.935Z,105
2016-04-11T11:04:49.610Z,105
2016-04-11T11:05:29.940Z,105
2016-04-11T11:06:29.926Z,105
2016-04-11T11:07:29.945Z,100
2016-04-11T11:08:29.963Z,100
2016-04-11T11:09:29.951Z,100
2016-04-11T11:10:29.954Z,100
2016-04-11T11:11:29.972Z,100
2016-04-11T11:12:29.958Z,95
2016-04-11T11:13:29.962Z,95
2016-04-11T11:14:29.964Z,95
2016-04-11T11:15:29.983Z,95
2016-04-11T11:16:29.969Z,95
2016-04-11T11:17:29.973Z,95
2016-04-11T11:18:29.975Z,95
2016-04-11T11:19:29.977Z,95
2016-04-11T11:20:29.980Z,95
2016-04-11T11:21:29.983Z,95
2016-04-11T11:22:29.985Z,95
2016-04-11T11:23:29.988Z,95
2016-04-11T11:24:29.991Z,95
2016-04-11T11:25:30.010Z,95
2016-04-11T11:26:30.012Z,95
2016-04-11T11:27:30.015Z,95
2016-04-11T11:28:30.018Z,95
2016-04-11T11:29:30.005Z,95
2016-04-11T11:30:30.023Z,95
2016-04-11T11:31:30.026Z,95
2016-04-11T11:32:30.028Z,95
2016-04-11T11:33:30.031Z,90
2016-04-11T11:34:30.033Z,90
2016-04-11T11:35:30.036Z,90
2016-04-11T11:36:30.039Z,90
2016-04-11T11:37:30.042Z,90
2016-04-11T11:38:30.045Z,90
2016-04-11T11:39:30.047Z,90
2016-04-11T11:40:30.050Z,90
2016-04-11T11:41:30.053Z,90
2016-04-11T11:42:30.055Z,90
2016-04-11T11:43:30.073Z,90
2016-04-11T11:44:30.061Z,90
2016-04-11T11:45:30.064Z,90
2016-04-11T11:46:30.066Z,90
2016-04-11T11:47:30.084Z,90
2016-04-11T11:48:30.103Z,90
2016-04-11T11:49:30.089Z,90
2016-04-11T11:50:30.092Z,90
2016-04-11T11:51:30.094Z,90
2016-04-11T11:52:30.098Z,90
2016-04-11T11:53:30.085Z,90
2016-04-11T11:54:30.103Z,90
2016-04-11T11:55:30.090Z,90
2016-04-11T11:56:30.093Z,90
2016-04-11T11:57:30.096Z,90
2016-04-11T11:58:30.098Z,85
2016-04-11T11:59:30.101Z,85
2016-04-11T12:00:30.103Z,85
2016-04-11T12:01:30.107Z,85
2016-04-11T12:02:30.140Z,85
2016-04-11T12:03:30.111Z,85
2016-04-11T12:04:30.130Z,85
2016-04-11T12:05:30.133Z,85
2016-04-11T12:06:30.135Z,85
2016-04-11T12:07:30.137Z,85
2016-04-11T12:08:30.141Z,85
2016-04-11T12:09:30.142Z,80
2016-04-11T12:10:30.146Z,80
2016-04-11T12:11:30.148Z,80
2016-04-11T12:12:30.136Z,80
2016-04-11T12:13:30.154Z,80
2016-04-11T12:14:30.142Z,80
2016-04-11T12:15:30.159Z,80
2016-04-11T12:16:30.161Z,80
2016-04-11T12:17:30.165Z,80
2016-04-11T12:18:30.167Z,80
2016-04-11T12:19:30.170Z,80
2016-04-11T12:20:30.172Z,80
2016-04-11T12:21:30.175Z,80
2016-04-11T12:22:30.194Z,80
2016-04-11T12:23:30.181Z,80
2016-04-11T12:24:30.183Z,80
2016-04-11T12:25:30.186Z,80
2016-04-11T12:26:30.189Z,80
2016-04-11T12:27:30.191Z,80
2016-04-11T12:28:30.194Z,80
2016-04-11T12:29:30.212Z,80
2016-04-11T12:30:30.060Z,80
2016-04-11T12:31:30.202Z,80
2016-04-11T12:32:30.205Z,80
2016-04-11T12:33:30.223Z,80
2016-04-11T12:34:30.210Z,75
2016-04-11T12:35:30.213Z,75
2016-04-11T12:36:30.215Z,75
2016-04-11T12:37:30.250Z,75
2016-04-11T12:38:30.237Z,75
2016-04-11T12:39:30.224Z,75
2016-04-11T12:40:30.227Z,75
2016-04-11T12:41:30.229Z,75
2016-04-11T12:42:30.231Z,75
2016-04-11T12:43:30.234Z,75
2016-04-11T12:44:30.237Z,75
2016-04-11T12:45:30.240Z,75
2016-04-11T12:46:30.102Z,75
2016-04-11T12:47:30.245Z,75
2016-04-11T12:48:30.247Z,75
2016-04-11T12:49:30.251Z,75
2016-04-11T12:50:30.270Z,75
2016-04-11T12:51:30.256Z,75
2016-04-11T12:52:30.275Z,75
2016-04-11T12:53:30.277Z,75
2016-04-11T12:54:30.264Z,70
2016-04-11T12:55:30.266Z,70
2016-04-11T12:56:30.269Z,70
2016-04-11T12:57:30.288Z,70
2016-04-11T12:58:30.290Z,70
2016-04-11T12:59:30.294Z,70
2016-04-11T13:00:30.312Z,70
2016-04-11T13:01:30.299Z,70
2016-04-11T13:02:30.285Z,70
2016-04-11T13:03:30.288Z,70
2016-04-11T13:04:30.151Z,70
2016-04-11T13:05:30.340Z,70
2016-04-11T13:06:30.312Z,70
2016-04-11T13:07:30.299Z,70
2016-04-11T13:08:30.301Z,70
2016-04-11T13:09:30.164Z,70
2016-04-11T13:10:30.323Z,70
2016-04-11T13:11:30.310Z,70
2016-04-11T13:12:30.313Z,70
2016-04-11T13:13:30.331Z,70
2016-04-11T13:14:30.459Z,70
2016-04-11T13:15:30.180Z,70
2016-04-11T13:16:30.323Z,70
2016-04-11T13:17:30.326Z,70
2016-04-11T13:18:30.344Z,70
2016-04-11T13:19:30.347Z,70
2016-04-11T13:20:30.350Z,70
2016-04-11T13:21:30.336Z,70
2016-04-11T13:22:30.355Z,65
2016-04-11T13:23:30.358Z,65
2016-04-11T13:24:30.361Z,65
2016-04-11T13:25:30.363Z,65
2016-04-11T13:26:30.366Z,65
2016-04-11T13:27:30.368Z,65
2016-04-11T13:28:30.215Z,65
2016-04-11T13:29:30.655Z,65
2016-04-11T13:30:30.418Z,65
2016-04-11T13:31:30.466Z,65
2016-04-11T13:32:30.514Z,65
2016-04-11T13:33:30.561Z,65
2016-04-11T13:34:30.625Z,65
2016-04-11T13:35:30.630Z,65
2016-04-11T13:36:30.665Z,65
2016-04-11T13:37:30.652Z,65
2016-04-11T13:38:30.514Z,65
2016-04-11T13:39:30.705Z,65
2016-04-11T13:40:30.776Z,65
2016-04-11T13:41:30.739Z,65
2016-04-11T13:42:30.731Z,65
2016-04-11T13:43:30.567Z,65
2016-04-11T13:44:30.764Z,65
2016-04-11T13:45:30.737Z,65
2016-04-11T13:46:30.758Z,65
2016-04-11T13:47:30.763Z,65
2016-04-11T13:48:30.768Z,65
2016-04-11T13:49:30.789Z,65
2016-04-11T13:50:30.761Z,65
2016-04-11T13:51:30.780Z,65
2016-04-11T13:52:30.768Z,65
2016-04-11T13:53:30.771Z,60
2016-04-11T13:54:30.838Z,60
2016-04-11T13:55:30.778Z,60
2016-04-11T13:56:30.797Z,60
2016-04-11T13:57:30.800Z,60
2016-04-11T13:58:30.803Z,60
2016-04-11T13:59:30.822Z,60
2016-04-11T14:00:30.808Z,60
2016-04-11T14:01:30.811Z,60
2016-04-11T14:02:30.814Z,60
2016-04-11T14:03:30.801Z,60
2016-04-11T14:04:30.803Z,60
2016-04-11T14:05:30.822Z,60
2016-04-11T14:06:30.825Z,60
2016-04-11T14:07:30.827Z,60
2016-04-11T14:08:30.674Z,60
2016-04-11T14:09:30.817Z,60
2016-04-11T14:10:30.836Z,60
2016-04-11T14:11:30.822Z,60
2016-04-11T14:12:30.841Z,60
2016-04-11T14:13:30.844Z,60